Time;durP1;ratioP1;P1;durP2;ratioP2;P2;SDS_P1;SDS_P2;PMS_P1;PMS_P2;Temp;Humidity;BMP_temperature;BMP_pressure;BME280_temperature;BME280_humidity;BME280_pressure;Samples;Min_cycle;Max_cycle;Signal;HPM_P1;HPM_P2
2021/11/16 00:01:48;;;;;;;79.15;44.50;;;5.40;99.90;;;;;;4125126;28;20034;-76
2021/11/16 00:03:49;;;;;;;78.90;43.90;;;5.40;99.90;;;;;;4126067;28;20157;-76
2021/11/16 00:05:50;;;;;;;74.32;42.03;;;5.40;99.90;;;;;;4123486;28;20038;-77
2021/11/16 00:07:51;;;;;;;76.22;40.95;;;5.40;99.90;;;;;;4127136;28;20042;-76
2021/11/16 00:09:52;;;;;;;73.72;40.20;;;5.40;99.90;;;;;;4130092;28;20089;-76
2021/11/16 00:11:53;;;;;;;70.82;42.53;;;5.40;99.90;;;;;;4127480;28;20030;-75
2021/11/16 00:13:54;;;;;;;73.28;40.13;;;5.40;99.90;;;;;;4123095;28;20051;-75
2021/11/16 00:15:55;;;;;;;75.95;40.00;;;5.50;99.90;;;;;;4128715;28;20030;-75
2021/11/16 00:17:56;;;;;;;71.55;40.70;;;5.50;99.90;;;;;;4127066;28;20501;-75
2021/11/16 00:19:57;;;;;;;70.55;42.15;;;5.40;99.90;;;;;;4125434;28;20118;-75
2021/11/16 00:21:58;;;;;;;69.47;40.20;;;5.40;99.90;;;;;;4122107;28;20060;-75
2021/11/16 00:24:03;;;;;;;75.28;42.03;;;5.40;99.90;;;;;;4128904;28;20069;-75
2021/11/16 00:26:06;;;;;;;69.78;39.10;;;5.40;99.90;;;;;;4125944;28;20077;-76
2021/11/16 00:28:07;;;;;;;76.35;41.78;;;5.40;99.90;;;;;;4127276;28;20054;-75
2021/11/16 00:30:09;;;;;;;72.40;40.95;;;5.40;99.90;;;;;;4122467;28;20045;-75
2021/11/16 00:32:10;;;;;;;81.53;42.15;;;5.40;99.90;;;;;;4128905;28;20049;-75
2021/11/16 00:34:11;;;;;;;75.07;39.08;;;5.40;99.90;;;;;;4126554;28;20038;-75
2021/11/16 00:36:11;;;;;;;67.43;40.35;;;5.40;99.90;;;;;;4120220;28;20046;-75
2021/11/16 00:38:13;;;;;;;69.13;37.60;;;5.40;99.90;;;;;;4130132;28;20398;-75
2021/11/16 00:40:18;;;;;;;67.60;38.17;;;5.40;99.90;;;;;;4121374;28;20097;-75
2021/11/16 00:42:19;;;;;;;72.93;42.20;;;5.50;99.90;;;;;;4128909;28;20031;-75
2021/11/16 00:44:20;;;;;;;71.50;42.17;;;5.40;99.90;;;;;;4130183;28;20479;-76
2021/11/16 00:46:21;;;;;;;72.38;42.75;;;5.40;99.90;;;;;;4128620;28;20042;-76
2021/11/16 00:48:23;;;;;;;77.03;42.58;;;5.40;99.90;;;;;;4125281;28;20060;-76
2021/11/16 00:50:24;;;;;;;73.83;43.43;;;5.40;99.90;;;;;;4126957;28;20035;-76
2021/11/16 00:52:24;;;;;;;73.20;41.03;;;5.40;99.90;;;;;;4128508;28;20536;-76
2021/11/16 00:54:25;;;;;;;74.70;41.53;;;5.40;99.90;;;;;;4128150;28;20484;-76
2021/11/16 00:56:25;;;;;;;84.95;45.10;;;5.40;99.90;;;;;;4117438;28;20054;-76
2021/11/16 00:58:27;;;;;;;74.35;41.60;;;5.40;99.90;;;;;;4126321;28;20414;-76
2021/11/16 01:00:28;;;;;;;73.32;42.45;;;5.40;99.90;;;;;;4127167;28;20487;-76
2021/11/16 01:02:29;;;;;;;78.45;42.17;;;5.40;99.90;;;;;;4125590;28;20031;-76
2021/11/16 01:04:30;;;;;;;72.45;40.72;;;5.40;99.90;;;;;;4117748;28;20467;-76
2021/11/16 01:06:30;;;;;;;75.57;42.55;;;5.40;99.90;;;;;;4126950;28;20031;-76
2021/11/16 01:08:31;;;;;;;76.13;43.55;;;5.40;99.90;;;;;;4128029;28;20646;-76
2021/11/16 01:10:33;;;;;;;70.95;39.38;;;5.40;99.90;;;;;;4126647;28;20077;-76
2021/11/16 01:12:34;;;;;;;71.40;42.28;;;5.40;99.90;;;;;;4119967;28;20030;-76
2021/11/16 01:14:35;;;;;;;76.75;42.70;;;5.40;99.90;;;;;;4126242;28;20030;-76
2021/11/16 01:16:36;;;;;;;70.40;41.63;;;5.40;99.90;;;;;;4129915;28;20100;-76
2021/11/16 01:18:37;;;;;;;80.40;42.13;;;5.40;99.90;;;;;;4122884;28;20031;-76
2021/11/16 01:20:39;;;;;;;77.78;40.13;;;5.40;99.90;;;;;;4127576;28;20042;-76
2021/11/16 01:22:40;;;;;;;73.85;39.53;;;5.40;99.90;;;;;;4118739;28;20086;-76
2021/11/16 01:24:42;;;;;;;72.85;40.17;;;5.40;99.90;;;;;;4122155;28;20069;-76
2021/11/16 01:26:47;;;;;;;71.20;36.03;;;5.40;99.90;;;;;;4122830;28;20031;-76
2021/11/16 01:28:47;;;;;;;70.22;36.95;;;5.40;99.90;;;;;;4125181;28;20133;-76
2021/11/16 01:30:50;;;;;;;71.15;40.40;;;5.40;99.90;;;;;;4128554;28;20353;-76
2021/11/16 01:33:02;;;;;;;70.90;40.25;;;5.40;99.90;;;;;;4128457;28;20133;-76
2021/11/16 01:35:04;;;;;;;73.68;38.55;;;5.40;99.90;;;;;;4119207;28;20038;-76
2021/11/16 01:37:05;;;;;;;65.97;36.50;;;5.30;99.90;;;;;;4125830;28;20039;-76
2021/11/16 01:39:06;;;;;;;71.72;38.90;;;5.40;99.90;;;;;;4126943;28;20130;-76
2021/11/16 01:41:08;;;;;;;67.80;38.45;;;5.40;99.90;;;;;;4126877;28;20037;-76
2021/11/16 01:43:10;;;;;;;79.50;38.95;;;5.50;99.90;;;;;;4119840;28;20038;-76
2021/11/16 01:45:11;;;;;;;71.88;39.63;;;5.50;99.90;;;;;;4124686;28;20093;-77
2021/11/16 01:47:13;;;;;;;64.80;35.42;;;5.40;99.90;;;;;;4127896;28;20049;-75
2021/11/16 01:49:13;;;;;;;72.45;41.40;;;5.40;99.90;;;;;;4128014;28;20049;-75
2021/11/16 01:51:16;;;;;;;77.05;39.63;;;5.40;99.90;;;;;;4117849;28;20054;-74
2021/11/16 01:53:16;;;;;;;77.35;38.38;;;5.30;99.90;;;;;;4128218;28;20034;-76
2021/11/16 01:55:21;;;;;;;77.07;39.63;;;5.30;99.90;;;;;;4123632;28;20121;-75
2021/11/16 01:57:21;;;;;;;76.03;38.83;;;5.30;99.90;;;;;;4123262;28;20031;-75
2021/11/16 01:59:22;;;;;;;78.10;40.30;;;5.30;99.90;;;;;;4122775;28;20076;-75
2021/11/16 02:01:23;;;;;;;71.00;38.72;;;5.30;99.90;;;;;;4121689;28;20058;-75
2021/11/16 02:03:24;;;;;;;79.57;40.67;;;5.30;99.90;;;;;;4125450;28;20039;-75
2021/11/16 02:05:42;;;;;;;75.32;37.92;;;5.20;99.90;;;;;;4128130;28;20023;-75
2021/11/16 02:07:47;;;;;;;79.32;41.28;;;5.20;99.90;;;;;;4127892;28;20039;-74
2021/11/16 02:09:48;;;;;;;80.70;39.00;;;5.30;99.90;;;;;;4130996;28;20022;-75
2021/11/16 02:11:48;;;;;;;68.28;37.90;;;5.30;99.90;;;;;;4129253;28;20185;-75
2021/11/16 02:13:50;;;;;;;78.95;38.03;;;5.30;99.90;;;;;;4123897;28;20470;-75
2021/11/16 02:15:52;;;;;;;72.75;41.25;;;5.30;99.90;;;;;;4130138;28;20465;-75
2021/11/16 02:17:53;;;;;;;76.72;40.80;;;5.20;99.90;;;;;;4124413;28;20026;-76
2021/11/16 02:19:55;;;;;;;76.40;39.05;;;5.20;99.90;;;;;;4130772;28;20035;-76
2021/11/16 02:21:57;;;;;;;78.05;39.75;;;5.30;99.90;;;;;;4125730;28;20030;-75
2021/11/16 02:23:58;;;;;;;76.97;40.35;;;5.30;99.90;;;;;;4128738;28;20045;-76
2021/11/16 02:25:59;;;;;;;73.72;37.55;;;5.30;99.90;;;;;;4122363;28;20050;-76
2021/11/16 02:28:01;;;;;;;74.45;39.45;;;5.30;99.90;;;;;;4128957;28;20041;-76
2021/11/16 02:30:06;;;;;;;73.50;37.78;;;5.30;99.90;;;;;;4120416;28;20042;-76
2021/11/16 02:32:07;;;;;;;73.40;35.92;;;5.30;99.90;;;;;;4122591;28;20031;-77
2021/11/16 02:34:08;;;;;;;68.00;36.78;;;5.30;99.90;;;;;;4122096;28;20039;-76
2021/11/16 02:36:10;;;;;;;76.10;38.28;;;5.30;99.90;;;;;;4130167;28;20044;-76
2021/11/16 02:38:10;;;;;;;78.32;39.35;;;5.30;99.90;;;;;;4126221;28;20124;-76
2021/11/16 02:40:12;;;;;;;76.93;38.30;;;5.30;99.90;;;;;;4130656;28;20038;-76
2021/11/16 02:42:18;;;;;;;77.97;36.85;;;5.30;99.90;;;;;;4130764;28;20046;-77
2021/11/16 02:44:20;;;;;;;74.63;38.80;;;5.30;99.90;;;;;;4129226;28;20154;-76
2021/11/16 02:46:21;;;;;;;69.57;36.58;;;5.20;99.90;;;;;;4129662;28;20245;-76
2021/11/16 02:48:21;;;;;;;69.50;35.92;;;5.20;99.90;;;;;;4131435;28;20079;-76
2021/11/16 02:50:23;;;;;;;80.38;38.60;;;5.30;99.90;;;;;;4127458;28;20042;-76
2021/11/16 02:52:24;;;;;;;81.68;39.53;;;5.30;99.90;;;;;;4130656;28;20618;-76
2021/11/16 02:54:26;;;;;;;76.68;38.70;;;5.20;99.90;;;;;;4129829;28;20104;-76
2021/11/16 02:56:26;;;;;;;75.90;39.47;;;5.20;99.90;;;;;;4130962;28;20050;-76
2021/11/16 02:58:27;;;;;;;72.90;38.33;;;5.20;99.90;;;;;;4127911;28;20534;-76
2021/11/16 03:00:28;;;;;;;80.43;40.72;;;5.20;99.90;;;;;;4130211;28;20030;-75
2021/11/16 03:02:29;;;;;;;83.10;41.03;;;5.20;99.90;;;;;;4127732;28;20045;-76
2021/11/16 03:04:34;;;;;;;80.55;40.13;;;5.20;99.90;;;;;;4131103;28;20478;-76
2021/11/16 03:06:34;;;;;;;70.82;35.92;;;5.20;99.90;;;;;;4128991;28;20042;-77
2021/11/16 03:08:36;;;;;;;81.07;39.40;;;5.20;99.90;;;;;;4124150;28;20038;-76
2021/11/16 03:10:36;;;;;;;76.63;37.40;;;5.20;99.90;;;;;;4130202;28;20057;-75
2021/11/16 03:12:39;;;;;;;74.80;39.22;;;5.20;99.90;;;;;;4122263;28;20034;-75
2021/11/16 03:14:40;;;;;;;77.72;40.58;;;5.20;99.90;;;;;;4129628;28;20034;-75
2021/11/16 03:16:41;;;;;;;73.25;38.13;;;5.20;99.90;;;;;;4123722;28;20937;-76
2021/11/16 03:18:46;;;;;;;85.07;40.83;;;5.20;99.90;;;;;;4130863;28;20385;-76
2021/11/16 03:20:47;;;;;;;71.13;36.47;;;5.20;99.90;;;;;;4127109;28;20077;-76
2021/11/16 03:22:56;;;;;;;81.80;40.78;;;5.20;99.90;;;;;;4130610;28;20026;-76
2021/11/16 03:24:58;;;;;;;70.47;35.08;;;5.20;99.90;;;;;;4130939;28;20425;-76
2021/11/16 03:27:03;;;;;;;78.18;41.17;;;5.20;99.90;;;;;;4130487;28;20560;-76
2021/11/16 03:29:04;;;;;;;73.88;40.20;;;5.20;99.90;;;;;;4128493;28;20154;-76
2021/11/16 03:31:18;;;;;;;71.47;38.08;;;5.20;99.90;;;;;;4126200;28;20042;-76
2021/11/16 03:33:22;;;;;;;80.10;40.70;;;5.20;99.90;;;;;;4127881;28;20502;-76
2021/11/16 03:35:23;;;;;;;77.18;39.53;;;5.20;99.90;;;;;;4130328;28;20045;-75
2021/11/16 03:37:29;;;;;;;81.88;41.05;;;5.20;99.90;;;;;;4129003;28;20026;-75
2021/11/16 03:39:31;;;;;;;82.30;40.38;;;5.20;99.90;;;;;;4130755;28;20054;-75
2021/11/16 03:41:31;;;;;;;73.32;40.17;;;5.20;99.90;;;;;;4129593;28;20053;-76
2021/11/16 03:43:36;;;;;;;82.15;39.65;;;5.20;99.90;;;;;;4115810;28;20467;-76
2021/11/16 03:45:38;;;;;;;84.22;42.15;;;5.20;99.90;;;;;;4131175;28;20393;-76
2021/11/16 03:47:40;;;;;;;85.07;40.60;;;5.20;99.90;;;;;;4119645;28;20027;-76
2021/11/16 03:49:40;;;;;;;77.22;38.25;;;5.20;99.90;;;;;;4141243;28;20116;-76
2021/11/16 03:51:43;;;;;;;81.38;40.10;;;5.20;99.90;;;;;;4129950;28;20041;-76
2021/11/16 03:53:45;;;;;;;82.75;43.88;;;5.20;99.90;;;;;;4130831;28;20462;-76
2021/11/16 03:55:46;;;;;;;76.97;39.45;;;5.20;99.90;;;;;;4126930;28;20090;-76
2021/11/16 03:57:49;;;;;;;83.88;42.05;;;5.20;99.90;;;;;;4122974;28;20046;-76
2021/11/16 03:59:50;;;;;;;83.47;42.97;;;5.30;99.90;;;;;;4127950;28;20114;-76
2021/11/16 04:01:50;;;;;;;77.97;42.10;;;5.30;99.90;;;;;;4119927;28;20057;-76
2021/11/16 04:03:52;;;;;;;82.82;42.08;;;5.30;99.90;;;;;;4128484;28;20042;-76
2021/11/16 04:05:53;;;;;;;74.78;38.55;;;5.20;99.90;;;;;;4123668;28;20150;-76
2021/11/16 04:07:55;;;;;;;77.57;38.05;;;5.20;99.90;;;;;;4124982;28;20042;-76
2021/11/16 04:09:56;;;;;;;83.97;42.35;;;5.20;99.90;;;;;;4129276;28;20054;-76
2021/11/16 04:11:57;;;;;;;77.57;38.65;;;5.20;99.90;;;;;;4126945;28;20030;-76
2021/11/16 04:13:58;;;;;;;81.72;40.17;;;5.20;99.90;;;;;;4121975;28;20343;-76
2021/11/16 04:15:59;;;;;;;81.28;41.90;;;5.20;99.90;;;;;;4126503;28;20034;-77
2021/11/16 04:18:01;;;;;;;74.03;38.38;;;5.20;99.90;;;;;;4122433;28;20065;-77
2021/11/16 04:20:03;;;;;;;75.20;40.65;;;5.20;99.90;;;;;;4125887;28;20038;-76
2021/11/16 04:22:05;;;;;;;77.13;40.22;;;5.20;99.90;;;;;;4117712;28;20039;-76
2021/11/16 04:24:05;;;;;;;79.05;39.72;;;5.20;99.90;;;;;;4128381;28;20114;-76
2021/11/16 04:26:08;;;;;;;76.18;37.92;;;5.20;99.90;;;;;;4116926;28;20414;-77
2021/11/16 04:28:10;;;;;;;83.97;39.38;;;5.20;99.90;;;;;;4126171;28;20042;-77
2021/11/16 04:30:14;;;;;;;70.43;36.92;;;5.20;99.90;;;;;;4129878;28;20045;-77
2021/11/16 04:32:15;;;;;;;77.95;39.03;;;5.20;99.90;;;;;;4127196;28;20081;-77
2021/11/16 04:34:15;;;;;;;67.78;36.13;;;5.20;99.90;;;;;;4122751;28;20037;-76
2021/11/16 04:36:17;;;;;;;75.82;39.75;;;5.20;99.90;;;;;;4125388;28;20040;-76
2021/11/16 04:38:19;;;;;;;79.30;38.08;;;5.20;99.90;;;;;;4119880;28;20030;-76
2021/11/16 04:40:26;;;;;;;75.53;39.78;;;5.30;99.90;;;;;;4128646;28;20041;-77
2021/11/16 04:42:27;;;;;;;82.80;38.55;;;5.30;99.90;;;;;;4128724;28;20120;-76
2021/11/16 04:44:28;;;;;;;78.28;39.03;;;5.30;99.90;;;;;;4124312;28;20031;-77
2021/11/16 04:46:29;;;;;;;82.30;40.00;;;5.30;99.90;;;;;;4123095;28;20719;-76
2021/11/16 04:48:54;;;;;;;109.90;41.45;;;5.30;99.90;;;;;;4122982;28;20034;-77
2021/11/16 04:55:32;;;;;;;88.65;43.33;;;5.20;99.90;;;;;;4130276;28;20035;-76
2021/11/16 05:02:32;;;;;;;87.15;42.85;;;5.20;99.90;;;;;;4120865;28;20046;-75
2021/11/16 05:04:35;;;;;;;81.85;40.63;;;5.20;99.90;;;;;;4126934;28;20443;-77
2021/11/16 05:06:36;;;;;;;84.20;40.17;;;5.30;99.90;;;;;;4125946;28;20058;-76
2021/11/16 05:08:43;;;;;;;82.50;39.17;;;5.20;99.90;;;;;;4122655;28;20478;-76
2021/11/16 05:10:44;;;;;;;78.50;39.50;;;5.20;99.90;;;;;;4126207;28;20091;-76
2021/11/16 05:12:45;;;;;;;84.88;40.15;;;5.20;99.90;;;;;;4122356;28;20026;-75
2021/11/16 05:14:46;;;;;;;87.93;42.25;;;5.20;99.90;;;;;;4124318;28;20035;-76
2021/11/16 05:16:46;;;;;;;85.47;39.42;;;5.20;99.90;;;;;;4125494;28;20034;-76
2021/11/16 05:18:47;;;;;;;83.50;39.30;;;5.20;99.90;;;;;;4129301;28;20065;-76
2021/11/16 05:20:48;;;;;;;79.25;38.30;;;5.30;99.90;;;;;;4128620;28;20045;-76
2021/11/16 05:22:52;;;;;;;83.50;40.33;;;5.30;99.90;;;;;;4126921;28;20116;-76
2021/11/16 05:24:53;;;;;;;78.03;36.78;;;5.30;99.90;;;;;;4126946;28;20041;-75
2021/11/16 05:26:54;;;;;;;81.07;40.63;;;5.30;99.90;;;;;;4126129;28;20046;-75
2021/11/16 05:28:57;;;;;;;75.65;36.47;;;5.30;99.90;;;;;;4127515;28;20145;-75
2021/11/16 05:30:58;;;;;;;82.38;38.47;;;5.30;99.90;;;;;;4126670;28;20537;-75
2021/11/16 05:32:58;;;;;;;83.60;40.63;;;5.30;99.90;;;;;;4128814;28;20041;-75
2021/11/16 05:34:59;;;;;;;87.72;41.83;;;5.30;99.90;;;;;;4121421;28;20379;-77
2021/11/16 05:37:00;;;;;;;82.80;39.60;;;5.20;99.90;;;;;;4126595;28;20046;-77
2021/11/16 05:39:01;;;;;;;82.80;37.75;;;5.20;99.90;;;;;;4122497;28;20037;-77
2021/11/16 05:41:02;;;;;;;90.22;41.72;;;5.20;99.90;;;;;;4123804;28;20136;-76
2021/11/16 05:43:03;;;;;;;91.05;40.10;;;5.20;99.90;;;;;;4119865;28;20066;-77
2021/11/16 05:45:05;;;;;;;82.40;38.58;;;5.20;99.90;;;;;;4127653;28;20046;-77
2021/11/16 05:47:07;;;;;;;84.95;40.30;;;5.10;99.90;;;;;;4130656;28;20136;-77
2021/11/16 05:49:07;;;;;;;76.55;37.65;;;5.20;99.90;;;;;;4130909;28;20038;-75
2021/11/16 05:51:09;;;;;;;76.90;38.90;;;5.10;99.90;;;;;;4130148;28;20038;-75
2021/11/16 05:53:11;;;;;;;84.30;39.33;;;5.10;99.90;;;;;;4132130;28;20026;-76
2021/11/16 05:55:12;;;;;;;80.82;35.85;;;5.10;99.90;;;;;;4129517;28;20883;-75
2021/11/16 05:57:14;;;;;;;74.40;35.65;;;5.10;99.90;;;;;;4129950;28;20096;-75
2021/11/16 05:59:15;;;;;;;81.10;37.33;;;5.10;99.90;;;;;;4129535;28;20089;-76
2021/11/16 06:01:15;;;;;;;79.28;41.67;;;5.20;99.90;;;;;;4127250;28;20039;-75
2021/11/16 06:03:17;;;;;;;86.65;39.08;;;5.10;99.90;;;;;;4127631;28;20386;-76
2021/11/16 06:05:19;;;;;;;79.45;37.88;;;5.10;99.90;;;;;;4128781;28;20035;-75
2021/11/16 06:07:19;;;;;;;82.47;39.22;;;5.10;99.90;;;;;;4129592;28;20097;-76
2021/11/16 06:09:20;;;;;;;85.95;42.92;;;5.20;99.90;;;;;;4130490;28;20043;-76
2021/11/16 06:11:22;;;;;;;83.97;40.10;;;5.20;99.90;;;;;;4127804;28;20078;-76
2021/11/16 06:13:23;;;;;;;87.37;40.43;;;5.10;99.90;;;;;;4130269;28;20034;-76
2021/11/16 06:15:24;;;;;;;84.70;38.63;;;5.10;99.90;;;;;;4131506;28;20270;-76
2021/11/16 06:17:24;;;;;;;85.70;38.88;;;5.10;99.90;;;;;;4131352;28;20454;-76
2021/11/16 06:19:25;;;;;;;77.15;37.83;;;5.10;99.90;;;;;;4122357;28;20050;-76
2021/11/16 06:21:28;;;;;;;89.03;40.53;;;5.10;99.90;;;;;;4132398;28;20030;-76
2021/11/16 06:23:29;;;;;;;83.68;40.90;;;5.00;99.90;;;;;;4130399;28;20046;-76
2021/11/16 06:25:29;;;;;;;89.80;40.90;;;5.00;99.90;;;;;;4125212;28;20166;-77
2021/11/16 06:27:30;;;;;;;82.40;40.45;;;5.00;99.90;;;;;;4125133;28;20042;-77
2021/11/16 06:29:31;;;;;;;83.72;40.22;;;5.00;99.90;;;;;;4122468;28;20093;-77
2021/11/16 06:31:33;;;;;;;89.63;41.35;;;5.00;99.90;;;;;;4131341;28;20084;-76
2021/11/16 06:33:34;;;;;;;86.30;39.80;;;5.00;99.90;;;;;;4131014;28;20403;-76
2021/11/16 06:35:34;;;;;;;79.82;40.00;;;5.00;99.90;;;;;;4130482;28;20045;-76
2021/11/16 06:37:35;;;;;;;87.57;40.38;;;5.10;99.90;;;;;;4126630;28;20434;-76
2021/11/16 06:39:36;;;;;;;80.25;40.38;;;5.10;99.90;;;;;;4129245;28;20026;-77
2021/11/16 06:41:38;;;;;;;88.22;39.53;;;5.00;99.90;;;;;;4123169;28;20034;-77
2021/11/16 06:43:39;;;;;;;82.78;39.95;;;5.10;99.90;;;;;;4127181;28;20682;-77
2021/11/16 06:45:39;;;;;;;75.30;36.95;;;5.10;99.90;;;;;;4122575;28;20059;-77
2021/11/16 06:47:40;;;;;;;85.65;41.50;;;5.10;99.90;;;;;;4130884;28;20054;-77
2021/11/16 06:49:48;;;;;;;84.47;38.70;;;5.10;99.90;;;;;;4121050;28;20031;-77
2021/11/16 06:51:52;;;;;;;80.03;38.28;;;5.20;99.90;;;;;;4142304;28;20062;-78
2021/11/16 06:53:53;;;;;;;85.00;38.70;;;5.20;99.90;;;;;;4125660;28;20043;-77
2021/11/16 06:55:55;;;;;;;83.13;37.10;;;5.10;99.90;;;;;;4129081;28;20034;-75
2021/11/16 06:57:56;;;;;;;89.93;41.63;;;5.10;99.90;;;;;;4124460;28;20386;-77
2021/11/16 06:59:57;;;;;;;88.20;40.35;;;5.20;99.90;;;;;;4128183;28;20027;-76
2021/11/16 07:01:58;;;;;;;90.28;40.22;;;5.20;99.90;;;;;;4126455;28;20470;-76
2021/11/16 07:03:59;;;;;;;81.43;39.95;;;5.30;99.90;;;;;;4127488;28;20114;-76
2021/11/16 07:06:03;;;;;;;90.22;43.03;;;5.20;99.90;;;;;;4124040;28;20053;-76
2021/11/16 07:08:03;;;;;;;87.07;41.42;;;5.20;99.90;;;;;;4125948;28;20038;-77
2021/11/16 07:10:05;;;;;;;77.65;37.58;;;5.20;99.90;;;;;;4128750;28;20037;-76
2021/11/16 07:12:24;;;;;;;85.25;40.92;;;5.20;99.90;;;;;;4129159;28;20164;-77
2021/11/16 07:14:28;;;;;;;93.90;40.38;;;5.20;99.90;;;;;;4126906;28;20043;-77
2021/11/16 07:16:54;;;;;;;92.45;40.10;;;5.10;99.90;;;;;;4116859;28;20490;-77
2021/11/16 07:18:56;;;;;;;90.65;41.10;;;5.10;99.90;;;;;;4129924;28;20100;-77
2021/11/16 07:21:00;;;;;;;93.18;41.83;;;5.00;99.90;;;;;;4129988;28;20026;-77
2021/11/16 07:23:01;;;;;;;95.30;43.20;;;5.00;99.90;;;;;;4130338;28;20116;-76
2021/11/16 07:25:10;;;;;;;88.30;41.40;;;5.00;99.90;;;;;;4128721;28;20087;-76
2021/11/16 07:27:12;;;;;;;89.28;39.65;;;4.90;99.90;;;;;;4131182;28;20042;-77
2021/11/16 07:29:15;;;;;;;90.88;42.35;;;5.00;99.90;;;;;;4127540;28;20451;-77
2021/11/16 07:31:18;;;;;;;94.38;41.35;;;5.00;99.90;;;;;;4128588;28;20034;-77
2021/11/16 07:33:20;;;;;;;95.50;42.67;;;5.00;99.90;;;;;;4121857;28;20042;-77
2021/11/16 07:35:33;;;;;;;94.50;41.42;;;5.00;99.90;;;;;;4123153;28;20077;-78
2021/11/16 07:37:36;;;;;;;94.88;41.47;;;5.00;99.90;;;;;;4128694;28;20397;-77
2021/11/16 07:39:45;;;;;;;94.78;39.90;;;4.90;99.90;;;;;;4128952;28;20046;-77
2021/11/16 07:41:46;;;;;;;96.90;41.50;;;4.90;99.90;;;;;;4136842;28;20133;-77
2021/11/16 07:43:47;;;;;;;92.28;40.63;;;4.90;99.90;;;;;;4115281;28;20057;-77
2021/11/16 07:45:51;;;;;;;99.65;42.53;;;4.90;99.90;;;;;;4116022;28;20049;-75
2021/11/16 07:48:01;;;;;;;89.07;39.55;;;4.90;99.90;;;;;;4116161;28;20034;-77
2021/11/16 07:50:02;;;;;;;89.07;40.15;;;4.90;99.90;;;;;;4116936;28;20485;-77
2021/11/16 07:52:03;;;;;;;95.40;43.50;;;4.90;99.90;;;;;;4117322;28;20070;-77
2021/11/16 07:54:03;;;;;;;92.03;40.17;;;4.90;99.90;;;;;;4116127;28;20038;-76
2021/11/16 07:56:09;;;;;;;94.65;40.55;;;4.90;99.90;;;;;;4113876;28;20038;-76
2021/11/16 07:58:12;;;;;;;83.85;36.67;;;5.00;99.90;;;;;;4117040;28;20026;-75
2021/11/16 08:00:21;;;;;;;92.38;40.83;;;5.00;99.90;;;;;;4116797;28;20502;-76
2021/11/16 08:02:36;;;;;;;84.78;35.42;;;5.00;99.90;;;;;;4116641;28;20038;-76
2021/11/16 08:04:44;;;;;;;80.95;37.90;;;5.00;99.90;;;;;;4116390;28;20047;-75
2021/11/16 08:11:42;;;;;;;79.28;35.33;;;5.00;99.90;;;;;;4116564;28;20029;-76
2021/11/16 08:13:54;;;;;;;83.95;37.70;;;5.00;99.90;;;;;;4116617;28;20121;-76
2021/11/16 08:16:10;;;;;;;79.97;36.63;;;5.10;99.90;;;;;;4116225;28;20035;-75
2021/11/16 08:18:14;;;;;;;84.22;38.28;;;5.00;99.90;;;;;;4116933;28;20145;-75
2021/11/16 08:20:16;;;;;;;82.90;38.10;;;5.00;99.90;;;;;;4114801;28;20027;-76
2021/11/16 08:22:19;;;;;;;84.38;38.40;;;5.00;99.90;;;;;;4115608;28;20445;-76
2021/11/16 08:24:20;;;;;;;84.22;35.75;;;5.10;99.90;;;;;;4115252;28;20031;-76
2021/11/16 08:26:22;;;;;;;77.40;35.63;;;5.10;99.90;;;;;;4117151;28;20038;-75
2021/11/16 08:28:23;;;;;;;81.13;35.70;;;5.10;99.90;;;;;;4114755;28;20510;-75
2021/11/16 08:30:24;;;;;;;76.60;36.78;;;5.10;99.90;;;;;;4116247;28;20041;-76
2021/11/16 08:32:33;;;;;;;84.15;35.88;;;5.10;99.90;;;;;;4116535;28;20489;-75
2021/11/16 08:34:44;;;;;;;74.50;33.20;;;5.10;99.90;;;;;;4115336;28;20116;-76
2021/11/16 08:36:55;;;;;;;72.95;33.55;;;5.20;99.90;;;;;;4116670;28;20661;-76
2021/11/16 08:38:58;;;;;;;78.43;35.10;;;5.20;99.90;;;;;;4117188;28;20571;-74
2021/11/16 08:40:59;;;;;;;71.25;35.90;;;5.20;99.90;;;;;;4117272;28;20026;-75
2021/11/16 08:43:11;;;;;;;80.50;33.38;;;5.20;99.90;;;;;;4115273;28;20047;-74
2021/11/16 08:45:17;;;;;;;80.47;35.50;;;5.30;99.90;;;;;;4115902;28;20034;-75
2021/11/16 08:47:19;;;;;;;80.18;37.17;;;5.20;99.90;;;;;;4117653;28;20113;-75
2021/11/16 08:49:27;;;;;;;75.83;34.90;;;5.30;99.90;;;;;;4117241;28;20102;-75
2021/11/16 08:51:39;;;;;;;66.85;31.33;;;5.40;99.90;;;;;;4114048;28;20034;-75
2021/11/16 08:53:41;;;;;;;68.50;32.70;;;5.40;99.90;;;;;;4115314;28;20117;-75
2021/11/16 08:55:43;;;;;;;85.47;36.95;;;5.40;99.90;;;;;;4113737;28;20067;-75
2021/11/16 08:57:45;;;;;;;82.85;35.00;;;5.30;99.90;;;;;;4114179;28;20049;-76
2021/11/16 08:59:46;;;;;;;71.38;34.20;;;5.30;99.90;;;;;;4115253;28;20085;-75
2021/11/16 09:01:57;;;;;;;75.72;34.22;;;5.20;99.90;;;;;;4116637;28;20038;-75
2021/11/16 09:03:58;;;;;;;70.53;32.55;;;5.20;99.90;;;;;;4115389;28;20061;-76
2021/11/16 09:06:01;;;;;;;67.30;31.98;;;5.20;99.90;;;;;;4115704;28;20042;-75
2021/11/16 09:08:04;;;;;;;77.85;35.60;;;5.20;99.90;;;;;;4114623;28;20034;-76
2021/11/16 09:10:10;;;;;;;;;;;5.20;99.90;;;;;;4114627;28;20145;-76
2021/11/16 09:12:13;;;;;;;72.70;32.70;;;5.20;99.90;;;;;;4114829;28;20000;-76
2021/11/16 09:14:14;;;;;;;;;;;5.20;99.90;;;;;;4113545;28;20046;-76
2021/11/16 09:16:18;;;;;;;70.65;30.67;;;5.20;99.90;;;;;;4116105;28;20292;-76
2021/11/16 09:18:21;;;;;;;76.95;33.45;;;5.20;99.90;;;;;;4115655;28;20058;-76
2021/11/16 09:20:26;;;;;;;70.75;32.78;;;5.20;99.90;;;;;;4114867;28;20050;-76
2021/11/16 09:22:27;;;;;;;74.82;34.72;;;5.20;99.90;;;;;;4116256;28;20109;-77
2021/11/16 09:24:36;;;;;;;72.63;32.03;;;5.20;99.90;;;;;;4116000;28;20464;-76
2021/11/16 09:27:09;;;;;;;67.55;31.70;;;5.10;99.90;;;;;;4114929;28;20442;-75
2021/11/16 09:29:18;;;;;;;76.50;33.72;;;5.10;99.90;;;;;;4115772;28;20038;-75
2021/11/16 09:31:29;;;;;;;82.38;33.17;;;5.10;99.90;;;;;;4115119;28;20039;-76
2021/11/16 09:33:36;;;;;;;75.45;32.30;;;5.10;99.90;;;;;;4115267;28;20034;-75
2021/11/16 09:36:05;;;;;;;82.03;32.28;;;5.10;99.90;;;;;;4115638;28;20046;-76
2021/11/16 09:38:05;;;;;;;70.72;32.33;;;5.10;99.90;;;;;;4114683;28;20042;-76
2021/11/16 09:40:07;;;;;;;74.20;30.60;;;5.20;99.90;;;;;;4116767;28;20385;-75
2021/11/16 09:42:11;;;;;;;74.20;30.70;;;5.20;99.90;;;;;;4115326;28;20502;-76
2021/11/16 09:44:22;;;;;;;77.75;32.35;;;5.20;99.90;;;;;;4115752;28;20093;-76
2021/11/16 09:46:23;;;;;;;78.35;31.83;;;5.20;99.90;;;;;;4115330;28;20084;-76
2021/11/16 09:48:26;;;;;;;67.35;31.55;;;5.20;99.90;;;;;;4114674;28;20045;-75
2021/11/16 09:50:27;;;;;;;76.13;30.67;;;5.20;99.90;;;;;;4114250;28;20813;-75
2021/11/16 09:52:40;;;;;;;71.90;30.42;;;5.20;99.90;;;;;;4113846;28;20023;-75
2021/11/16 09:54:54;;;;;;;65.18;30.65;;;5.30;99.90;;;;;;4115279;28;20034;-75
2021/11/16 09:57:08;;;;;;;70.10;31.67;;;5.30;99.90;;;;;;4114397;28;20046;-75
2021/11/16 09:59:12;;;;;;;62.03;29.92;;;5.30;99.90;;;;;;4114497;28;20031;-75
2021/11/16 10:01:28;;;;;;;63.95;29.55;;;5.30;99.90;;;;;;4113711;28;20406;-76
2021/11/16 10:03:30;;;;;;;69.20;32.35;;;5.40;99.90;;;;;;4115665;28;20117;-76
2021/11/16 10:05:39;;;;;;;62.03;29.25;;;5.40;99.90;;;;;;4114130;28;20050;-76
2021/11/16 10:07:40;;;;;;;70.05;30.30;;;5.40;99.90;;;;;;4116797;28;20081;-76
2021/11/16 10:09:42;;;;;;;63.38;28.85;;;5.40;99.90;;;;;;4115938;28;20069;-76
2021/11/16 10:11:44;;;;;;;59.15;27.00;;;5.50;99.90;;;;;;4115626;28;20030;-76
2021/11/16 10:13:45;;;;;;;59.05;28.65;;;5.50;99.90;;;;;;4115459;28;20069;-76
2021/11/16 10:15:48;;;;;;;60.92;28.92;;;5.50;99.90;;;;;;4114973;28;20108;-75
2021/11/16 10:17:51;;;;;;;56.25;27.88;;;5.50;99.90;;;;;;4115479;28;20053;-77
2021/11/16 10:19:52;;;;;;;57.70;27.80;;;5.50;99.90;;;;;;4114786;28;20736;-75
2021/11/16 10:21:52;;;;;;;58.08;27.17;;;5.50;99.90;;;;;;4114834;28;20324;-76
2021/11/16 10:23:55;;;;;;;63.28;28.92;;;5.40;99.90;;;;;;4115042;28;20439;-79
2021/11/16 10:25:56;;;;;;;55.83;26.43;;;5.40;99.90;;;;;;4117494;28;20030;-78
2021/11/16 10:28:04;;;;;;;56.85;25.95;;;5.40;99.90;;;;;;4118772;28;20026;-79
2021/11/16 10:30:18;;;;;;;50.33;24.70;;;5.40;99.90;;;;;;4119791;28;20133;-78
2021/11/16 10:32:20;;;;;;;56.33;26.40;;;5.50;99.90;;;;;;4119621;28;20097;-78
2021/11/16 10:34:37;;;;;;;55.30;25.23;;;5.50;99.90;;;;;;4117846;28;20042;-78
2021/11/16 10:36:38;;;;;;;53.42;26.77;;;5.50;99.90;;;;;;4119589;28;20494;-79
2021/11/16 10:38:53;;;;;;;56.08;24.95;;;5.60;99.90;;;;;;4119241;28;20042;-78
2021/11/16 10:40:55;;;;;;;47.10;22.90;;;5.60;99.90;;;;;;4119166;28;20421;-79
2021/11/16 10:42:59;;;;;;;45.50;22.15;;;5.60;99.90;;;;;;4118874;28;20126;-78
2021/11/16 10:45:00;;;;;;;48.72;23.02;;;5.60;99.90;;;;;;4119590;28;20113;-79
2021/11/16 10:47:01;;;;;;;43.80;21.83;;;5.70;99.90;;;;;;4119021;28;20041;-78
2021/11/16 10:49:16;;;;;;;39.15;20.80;;;5.60;99.90;;;;;;4134012;28;20050;-78